sensor_id;sensor_type;location;lat;lon;timestamp;temperature;humidity
516;DHT22;244;48.508;9.052;2023-03-23T00:01:12;13.30;3.60
516;DHT22;244;48.508;9.052;2023-03-23T00:03:41;13.30;3.60
516;DHT22;244;48.508;9.052;2023-03-23T00:06:09;13.30;3.60
516;DHT22;244;48.508;9.052;2023-03-23T00:08:37;13.30;3.70
516;DHT22;244;48.508;9.052;2023-03-23T00:11:10;13.30;3.70
516;DHT22;244;48.508;9.052;2023-03-23T00:13:40;13.30;3.80
516;DHT22;244;48.508;9.052;2023-03-23T00:16:08;13.30;3.80
516;DHT22;244;48.508;9.052;2023-03-23T00:18:44;13.40;4.20
516;DHT22;244;48.508;9.052;2023-03-23T00:21:11;13.40;4.00
516;DHT22;244;48.508;9.052;2023-03-23T00:23:38;13.40;4.10
516;DHT22;244;48.508;9.052;2023-03-23T00:26:05;13.40;4.10
516;DHT22;244;48.508;9.052;2023-03-23T00:28:32;13.40;4.10
516;DHT22;244;48.508;9.052;2023-03-23T00:31:01;13.40;4.10
516;DHT22;244;48.508;9.052;2023-03-23T00:33:30;13.40;4.20
516;DHT22;244;48.508;9.052;2023-03-23T00:36:00;13.40;4.20
516;DHT22;244;48.508;9.052;2023-03-23T00:38:27;13.40;4.30
516;DHT22;244;48.508;9.052;2023-03-23T00:40:54;13.40;4.30
516;DHT22;244;48.508;9.052;2023-03-23T00:43:24;13.40;4.40
516;DHT22;244;48.508;9.052;2023-03-23T00:45:54;13.40;4.40
516;DHT22;244;48.508;9.052;2023-03-23T00:48:23;13.40;4.40
516;DHT22;244;48.508;9.052;2023-03-23T00:50:50;13.40;4.50
516;DHT22;244;48.508;9.052;2023-03-23T00:53:19;13.40;4.50
516;DHT22;244;48.508;9.052;2023-03-23T00:55:47;13.40;4.60
516;DHT22;244;48.508;9.052;2023-03-23T00:58:15;13.40;4.60
516;DHT22;244;48.508;9.052;2023-03-23T01:00:43;13.40;4.70
516;DHT22;244;48.508;9.052;2023-03-23T01:03:10;13.40;4.70
516;DHT22;244;48.508;9.052;2023-03-23T01:05:38;13.40;4.70
516;DHT22;244;48.508;9.052;2023-03-23T01:08:06;13.40;4.80
516;DHT22;244;48.508;9.052;2023-03-23T01:10:35;13.30;4.70
516;DHT22;244;48.508;9.052;2023-03-23T01:13:04;13.30;4.80
516;DHT22;244;48.508;9.052;2023-03-23T01:15:31;13.30;4.90
516;DHT22;244;48.508;9.052;2023-03-23T01:17:58;13.30;4.90
516;DHT22;244;48.508;9.052;2023-03-23T01:20:26;13.30;5.00
516;DHT22;244;48.508;9.052;2023-03-23T01:22:54;13.30;5.00
516;DHT22;244;48.508;9.052;2023-03-23T01:25:26;13.30;5.70
516;DHT22;244;48.508;9.052;2023-03-23T01:27:55;13.30;5.10
516;DHT22;244;48.508;9.052;2023-03-23T01:30:22;13.30;5.10
516;DHT22;244;48.508;9.052;2023-03-23T01:32:49;13.30;5.20
516;DHT22;244;48.508;9.052;2023-03-23T01:35:16;13.30;5.30
516;DHT22;244;48.508;9.052;2023-03-23T01:37:43;13.30;5.30
516;DHT22;244;48.508;9.052;2023-03-23T01:40:11;13.30;5.30
516;DHT22;244;48.508;9.052;2023-03-23T01:42:39;13.30;5.30
516;DHT22;244;48.508;9.052;2023-03-23T01:45:29;13.30;5.40
516;DHT22;244;48.508;9.052;2023-03-23T01:48:11;13.30;5.30
516;DHT22;244;48.508;9.052;2023-03-23T01:50:48;13.30;5.40
516;DHT22;244;48.508;9.052;2023-03-23T01:53:15;13.30;5.40
516;DHT22;244;48.508;9.052;2023-03-23T01:55:43;13.30;5.50
516;DHT22;244;48.508;9.052;2023-03-23T01:58:14;13.30;5.50
516;DHT22;244;48.508;9.052;2023-03-23T02:00:43;13.30;5.60
516;DHT22;244;48.508;9.052;2023-03-23T02:03:11;13.30;5.60
516;DHT22;244;48.508;9.052;2023-03-23T02:05:42;13.30;5.60
516;DHT22;244;48.508;9.052;2023-03-23T02:08:10;13.30;5.60
516;DHT22;244;48.508;9.052;2023-03-23T02:10:39;13.30;5.70
516;DHT22;244;48.508;9.052;2023-03-23T02:13:08;13.30;5.70
516;DHT22;244;48.508;9.052;2023-03-23T02:15:47;13.30;5.80
516;DHT22;244;48.508;9.052;2023-03-23T02:24:29;13.20;5.80
516;DHT22;244;48.508;9.052;2023-03-23T02:27:00;13.20;5.90
516;DHT22;244;48.508;9.052;2023-03-23T02:29:45;13.20;6.60
516;DHT22;244;48.508;9.052;2023-03-23T02:32:31;13.20;6.10
516;DHT22;244;48.508;9.052;2023-03-23T02:35:03;13.20;6.10
516;DHT22;244;48.508;9.052;2023-03-23T02:37:37;13.20;6.10
516;DHT22;244;48.508;9.052;2023-03-23T02:40:09;13.20;6.20
516;DHT22;244;48.508;9.052;2023-03-23T02:42:40;13.20;6.20
516;DHT22;244;48.508;9.052;2023-03-23T02:45:11;13.20;6.80
516;DHT22;244;48.508;9.052;2023-03-23T02:47:39;13.20;6.20
516;DHT22;244;48.508;9.052;2023-03-23T02:50:13;13.20;6.30
516;DHT22;244;48.508;9.052;2023-03-23T02:52:42;13.20;6.30
516;DHT22;244;48.508;9.052;2023-03-23T02:55:10;13.10;6.30
516;DHT22;244;48.508;9.052;2023-03-23T02:57:39;13.10;6.40
516;DHT22;244;48.508;9.052;2023-03-23T03:00:11;13.10;6.40
516;DHT22;244;48.508;9.052;2023-03-23T03:02:40;13.10;6.60
516;DHT22;244;48.508;9.052;2023-03-23T03:05:17;13.10;6.60
516;DHT22;244;48.508;9.052;2023-03-23T03:07:56;13.00;6.60
516;DHT22;244;48.508;9.052;2023-03-23T03:10:31;13.00;6.60
516;DHT22;244;48.508;9.052;2023-03-23T03:13:05;13.00;6.70
516;DHT22;244;48.508;9.052;2023-03-23T03:15:36;13.00;6.80
516;DHT22;244;48.508;9.052;2023-03-23T03:18:10;13.00;6.80
516;DHT22;244;48.508;9.052;2023-03-23T03:20:45;13.00;7.40
516;DHT22;244;48.508;9.052;2023-03-23T03:23:14;13.00;7.40
516;DHT22;244;48.508;9.052;2023-03-23T03:25:44;13.10;6.90
516;DHT22;244;48.508;9.052;2023-03-23T03:28:15;13.10;7.50
516;DHT22;244;48.508;9.052;2023-03-23T03:30:47;13.10;6.90
516;DHT22;244;48.508;9.052;2023-03-23T03:33:19;13.00;6.80
516;DHT22;244;48.508;9.052;2023-03-23T03:35:53;13.00;6.90
516;DHT22;244;48.508;9.052;2023-03-23T03:38:21;13.00;6.90
516;DHT22;244;48.508;9.052;2023-03-23T03:40:48;13.10;7.10
516;DHT22;244;48.508;9.052;2023-03-23T03:43:15;13.10;7.10
516;DHT22;244;48.508;9.052;2023-03-23T03:45:42;13.10;7.10
516;DHT22;244;48.508;9.052;2023-03-23T03:48:10;13.10;7.10
516;DHT22;244;48.508;9.052;2023-03-23T03:50:37;13.10;7.10
516;DHT22;244;48.508;9.052;2023-03-23T03:53:05;13.10;7.10
516;DHT22;244;48.508;9.052;2023-03-23T03:55:32;13.10;7.10
516;DHT22;244;48.508;9.052;2023-03-23T03:58:01;13.20;7.20
516;DHT22;244;48.508;9.052;2023-03-23T04:00:28;13.20;7.10
516;DHT22;244;48.508;9.052;2023-03-23T04:02:55;13.20;7.10
516;DHT22;244;48.508;9.052;2023-03-23T04:05:25;13.20;7.20
516;DHT22;244;48.508;9.052;2023-03-23T04:07:54;13.20;7.20
516;DHT22;244;48.508;9.052;2023-03-23T04:10:28;13.10;7.10
516;DHT22;244;48.508;9.052;2023-03-23T04:12:56;13.10;7.20
516;DHT22;244;48.508;9.052;2023-03-23T04:15:23;13.10;7.20
516;DHT22;244;48.508;9.052;2023-03-23T04:17:50;13.10;7.30
516;DHT22;244;48.508;9.052;2023-03-23T04:20:17;13.00;7.30
516;DHT22;244;48.508;9.052;2023-03-23T04:22:45;13.00;7.40
516;DHT22;244;48.508;9.052;2023-03-23T04:25:16;13.00;7.50
516;DHT22;244;48.508;9.052;2023-03-23T04:27:47;13.00;7.50
516;DHT22;244;48.508;9.052;2023-03-23T04:30:19;13.00;7.50
516;DHT22;244;48.508;9.052;2023-03-23T04:32:46;13.00;7.60
516;DHT22;244;48.508;9.052;2023-03-23T04:35:16;13.00;7.60
516;DHT22;244;48.508;9.052;2023-03-23T04:37:44;13.00;7.50
516;DHT22;244;48.508;9.052;2023-03-23T04:40:11;13.10;7.60
516;DHT22;244;48.508;9.052;2023-03-23T04:42:40;13.10;7.60
516;DHT22;244;48.508;9.052;2023-03-23T04:45:14;13.10;7.60
516;DHT22;244;48.508;9.052;2023-03-23T04:47:42;13.10;7.60
516;DHT22;244;48.508;9.052;2023-03-23T04:50:19;13.10;7.60
516;DHT22;244;48.508;9.052;2023-03-23T04:52:46;13.10;7.60
516;DHT22;244;48.508;9.052;2023-03-23T04:55:13;13.10;7.70
516;DHT22;244;48.508;9.052;2023-03-23T04:57:40;13.10;7.80
516;DHT22;244;48.508;9.052;2023-03-23T05:00:08;13.10;7.90
516;DHT22;244;48.508;9.052;2023-03-23T05:02:39;13.10;8.00
516;DHT22;244;48.508;9.052;2023-03-23T05:05:07;13.10;8.00
516;DHT22;244;48.508;9.052;2023-03-23T05:07:34;13.10;8.00
516;DHT22;244;48.508;9.052;2023-03-23T05:10:01;13.10;8.00
516;DHT22;244;48.508;9.052;2023-03-23T05:12:28;13.10;8.10
516;DHT22;244;48.508;9.052;2023-03-23T05:14:54;13.10;8.10
516;DHT22;244;48.508;9.052;2023-03-23T05:17:21;13.10;8.00
516;DHT22;244;48.508;9.052;2023-03-23T05:19:51;13.20;8.10
516;DHT22;244;48.508;9.052;2023-03-23T05:22:19;13.20;8.10
516;DHT22;244;48.508;9.052;2023-03-23T05:24:48;13.20;8.10
516;DHT22;244;48.508;9.052;2023-03-23T05:27:17;13.20;8.10
516;DHT22;244;48.508;9.052;2023-03-23T05:29:45;13.10;8.00
516;DHT22;244;48.508;9.052;2023-03-23T05:32:14;13.10;8.00
516;DHT22;244;48.508;9.052;2023-03-23T05:34:41;13.10;8.10
516;DHT22;244;48.508;9.052;2023-03-23T05:37:10;13.10;8.00
516;DHT22;244;48.508;9.052;2023-03-23T05:39:37;13.20;8.10
516;DHT22;244;48.508;9.052;2023-03-23T05:42:05;13.20;8.10
516;DHT22;244;48.508;9.052;2023-03-23T05:44:33;13.20;8.10
516;DHT22;244;48.508;9.052;2023-03-23T05:47:00;13.20;8.10
516;DHT22;244;48.508;9.052;2023-03-23T05:49:27;13.20;8.10
516;DHT22;244;48.508;9.052;2023-03-23T05:51:54;13.20;8.10
516;DHT22;244;48.508;9.052;2023-03-23T05:54:22;13.30;8.20
516;DHT22;244;48.508;9.052;2023-03-23T05:56:52;13.30;8.20
516;DHT22;244;48.508;9.052;2023-03-23T05:59:20;13.40;8.20
516;DHT22;244;48.508;9.052;2023-03-23T06:01:47;13.40;8.20
516;DHT22;244;48.508;9.052;2023-03-23T06:04:14;13.50;8.10
516;DHT22;244;48.508;9.052;2023-03-23T06:06:42;13.60;8.70
516;DHT22;244;48.508;9.052;2023-03-23T06:09:09;13.70;7.90
516;DHT22;244;48.508;9.052;2023-03-23T06:11:38;13.80;7.80
516;DHT22;244;48.508;9.052;2023-03-23T06:14:05;13.90;7.80
516;DHT22;244;48.508;9.052;2023-03-23T06:16:32;13.90;7.60
516;DHT22;244;48.508;9.052;2023-03-23T06:18:59;14.10;7.60
516;DHT22;244;48.508;9.052;2023-03-23T06:21:27;14.20;7.50
516;DHT22;244;48.508;9.052;2023-03-23T06:23:54;14.30;7.40
516;DHT22;244;48.508;9.052;2023-03-23T06:26:25;14.40;7.40
516;DHT22;244;48.508;9.052;2023-03-23T06:28:53;14.50;7.30
516;DHT22;244;48.508;9.052;2023-03-23T06:31:21;14.60;7.20
516;DHT22;244;48.508;9.052;2023-03-23T06:33:48;14.70;7.10
516;DHT22;244;48.508;9.052;2023-03-23T06:36:16;14.80;7.00
516;DHT22;244;48.508;9.052;2023-03-23T06:38:43;14.90;7.00
516;DHT22;244;48.508;9.052;2023-03-23T06:41:10;15.00;7.00
516;DHT22;244;48.508;9.052;2023-03-23T06:43:37;15.00;6.80
516;DHT22;244;48.508;9.052;2023-03-23T06:46:06;15.10;6.80
516;DHT22;244;48.508;9.052;2023-03-23T06:48:33;15.10;6.70
516;DHT22;244;48.508;9.052;2023-03-23T06:51:00;15.20;6.80
516;DHT22;244;48.508;9.052;2023-03-23T06:53:27;15.20;6.60
516;DHT22;244;48.508;9.052;2023-03-23T06:55:54;15.40;6.60
516;DHT22;244;48.508;9.052;2023-03-23T06:58:22;15.50;6.50
516;DHT22;244;48.508;9.052;2023-03-23T07:00:53;15.60;6.30
516;DHT22;244;48.508;9.052;2023-03-23T07:03:23;15.70;6.20
516;DHT22;244;48.508;9.052;2023-03-23T07:05:51;15.80;6.80
516;DHT22;244;48.508;9.052;2023-03-23T07:08:18;15.90;6.10
516;DHT22;244;48.508;9.052;2023-03-23T07:10:45;15.90;6.10
516;DHT22;244;48.508;9.052;2023-03-23T07:13:12;16.00;6.00
516;DHT22;244;48.508;9.052;2023-03-23T07:15:39;16.00;5.90
516;DHT22;244;48.508;9.052;2023-03-23T07:18:06;16.10;5.80
516;DHT22;244;48.508;9.052;2023-03-23T07:20:34;16.20;5.70
516;DHT22;244;48.508;9.052;2023-03-23T07:23:01;16.30;5.60
516;DHT22;244;48.508;9.052;2023-03-23T07:25:30;16.40;6.20
516;DHT22;244;48.508;9.052;2023-03-23T07:27:58;16.50;5.50
516;DHT22;244;48.508;9.052;2023-03-23T07:30:25;16.50;5.50
516;DHT22;244;48.508;9.052;2023-03-23T07:32:52;16.50;5.50
516;DHT22;244;48.508;9.052;2023-03-23T07:35:19;16.40;5.40
516;DHT22;244;48.508;9.052;2023-03-23T07:37:48;16.40;5.40
516;DHT22;244;48.508;9.052;2023-03-23T07:40:15;16.40;5.40
516;DHT22;244;48.508;9.052;2023-03-23T07:42:44;16.40;5.40
516;DHT22;244;48.508;9.052;2023-03-23T07:45:15;16.40;5.40
516;DHT22;244;48.508;9.052;2023-03-23T07:47:42;16.50;5.40
516;DHT22;244;48.508;9.052;2023-03-23T07:50:09;16.50;5.30
516;DHT22;244;48.508;9.052;2023-03-23T07:52:38;16.60;5.10
516;DHT22;244;48.508;9.052;2023-03-23T07:55:08;16.80;5.10
516;DHT22;244;48.508;9.052;2023-03-23T07:57:37;16.90;5.00
516;DHT22;244;48.508;9.052;2023-03-23T08:00:05;17.00;4.80
516;DHT22;244;48.508;9.052;2023-03-23T08:02:37;17.20;4.70
516;DHT22;244;48.508;9.052;2023-03-23T08:05:05;17.40;4.50
516;DHT22;244;48.508;9.052;2023-03-23T08:07:32;17.50;4.20
516;DHT22;244;48.508;9.052;2023-03-23T08:09:59;17.70;4.10
516;DHT22;244;48.508;9.052;2023-03-23T08:12:28;17.80;3.80
516;DHT22;244;48.508;9.052;2023-03-23T08:14:55;17.90;3.70
516;DHT22;244;48.508;9.052;2023-03-23T08:17:22;18.10;3.40
516;DHT22;244;48.508;9.052;2023-03-23T08:19:49;18.20;3.30
516;DHT22;244;48.508;9.052;2023-03-23T08:22:18;18.30;3.10
516;DHT22;244;48.508;9.052;2023-03-23T08:24:45;18.40;2.90
516;DHT22;244;48.508;9.052;2023-03-23T08:27:12;18.50;2.50
516;DHT22;244;48.508;9.052;2023-03-23T08:29:40;18.60;2.50
516;DHT22;244;48.508;9.052;2023-03-23T08:32:07;18.60;2.50
516;DHT22;244;48.508;9.052;2023-03-23T08:34:34;18.70;2.10
516;DHT22;244;48.508;9.052;2023-03-23T08:37:01;18.80;2.00
516;DHT22;244;48.508;9.052;2023-03-23T08:39:28;18.80;1.90
516;DHT22;244;48.508;9.052;2023-03-23T08:41:56;18.80;1.90
516;DHT22;244;48.508;9.052;2023-03-23T08:44:23;18.90;2.00
516;DHT22;244;48.508;9.052;2023-03-23T08:46:51;18.90;1.90
516;DHT22;244;48.508;9.052;2023-03-23T08:49:20;18.90;1.80
516;DHT22;244;48.508;9.052;2023-03-23T08:51:47;18.90;1.80
516;DHT22;244;48.508;9.052;2023-03-23T08:54:14;19.00;1.70
516;DHT22;244;48.508;9.052;2023-03-23T08:56:42;19.10;2.30
516;DHT22;244;48.508;9.052;2023-03-23T08:59:09;19.20;1.70
516;DHT22;244;48.508;9.052;2023-03-23T09:01:37;19.20;1.70
516;DHT22;244;48.508;9.052;2023-03-23T09:04:05;19.10;2.30
516;DHT22;244;48.508;9.052;2023-03-23T09:06:32;19.10;1.70
516;DHT22;244;48.508;9.052;2023-03-23T09:08:59;19.20;1.70
516;DHT22;244;48.508;9.052;2023-03-23T09:11:32;19.20;1.50
516;DHT22;244;48.508;9.052;2023-03-23T09:13:59;19.20;1.50
516;DHT22;244;48.508;9.052;2023-03-23T09:16:26;19.30;1.50
516;DHT22;244;48.508;9.052;2023-03-23T09:18:53;19.40;1.40
516;DHT22;244;48.508;9.052;2023-03-23T09:21:23;19.50;1.30
516;DHT22;244;48.508;9.052;2023-03-23T09:23:50;19.60;1.20
516;DHT22;244;48.508;9.052;2023-03-23T09:26:18;19.60;1.10
516;DHT22;244;48.508;9.052;2023-03-23T09:28:45;19.70;1.00
516;DHT22;244;48.508;9.052;2023-03-23T09:31:12;19.90;1.00
516;DHT22;244;48.508;9.052;2023-03-23T09:33:39;19.90;1.00
516;DHT22;244;48.508;9.052;2023-03-23T09:36:08;20.00;1.00
516;DHT22;244;48.508;9.052;2023-03-23T09:38:39;19.90;1.00
516;DHT22;244;48.508;9.052;2023-03-23T09:41:12;19.80;1.00
516;DHT22;244;48.508;9.052;2023-03-23T09:43:53;19.80;1.00
516;DHT22;244;48.508;9.052;2023-03-23T09:46:33;19.80;1.00
516;DHT22;244;48.508;9.052;2023-03-23T09:49:07;19.80;1.00
516;DHT22;244;48.508;9.052;2023-03-23T09:51:42;19.90;1.00
516;DHT22;244;48.508;9.052;2023-03-23T09:54:16;20.00;1.00
516;DHT22;244;48.508;9.052;2023-03-23T09:56:44;20.10;1.00
516;DHT22;244;48.508;9.052;2023-03-23T09:59:17;20.10;1.00
516;DHT22;244;48.508;9.052;2023-03-23T10:01:48;20.10;1.00
516;DHT22;244;48.508;9.052;2023-03-23T10:04:28;20.10;1.00
516;DHT22;244;48.508;9.052;2023-03-23T10:06:58;20.20;1.00
516;DHT22;244;48.508;9.052;2023-03-23T10:09:28;20.30;1.00
516;DHT22;244;48.508;9.052;2023-03-23T10:12:00;20.40;1.00
516;DHT22;244;48.508;9.052;2023-03-23T10:14:39;20.50;1.00
516;DHT22;244;48.508;9.052;2023-03-23T10:17:15;20.50;1.00
516;DHT22;244;48.508;9.052;2023-03-23T10:19:49;20.60;1.00
516;DHT22;244;48.508;9.052;2023-03-23T10:22:25;20.60;1.00
516;DHT22;244;48.508;9.052;2023-03-23T10:25:01;20.70;1.00
516;DHT22;244;48.508;9.052;2023-03-23T10:27:33;20.70;1.00
516;DHT22;244;48.508;9.052;2023-03-23T10:30:14;20.70;1.00
516;DHT22;244;48.508;9.052;2023-03-23T10:32:44;20.70;1.00
516;DHT22;244;48.508;9.052;2023-03-23T10:35:18;20.70;1.00
516;DHT22;244;48.508;9.052;2023-03-23T10:37:48;20.60;1.00
516;DHT22;244;48.508;9.052;2023-03-23T10:40:20;20.60;1.00
516;DHT22;244;48.508;9.052;2023-03-23T10:42:49;20.50;1.00
516;DHT22;244;48.508;9.052;2023-03-23T10:45:20;20.50;1.00
516;DHT22;244;48.508;9.052;2023-03-23T10:47:51;20.20;1.00
516;DHT22;244;48.508;9.052;2023-03-23T10:50:24;20.10;1.00
516;DHT22;244;48.508;9.052;2023-03-23T10:52:53;20.10;1.00
516;DHT22;244;48.508;9.052;2023-03-23T10:55:24;20.20;1.00
516;DHT22;244;48.508;9.052;2023-03-23T10:58:00;20.30;1.00
516;DHT22;244;48.508;9.052;2023-03-23T11:00:28;20.50;1.00
516;DHT22;244;48.508;9.052;2023-03-23T11:03:00;20.70;1.00
516;DHT22;244;48.508;9.052;2023-03-23T11:05:34;20.90;1.00
516;DHT22;244;48.508;9.052;2023-03-23T11:08:03;20.90;1.00
516;DHT22;244;48.508;9.052;2023-03-23T11:10:40;21.00;1.00
516;DHT22;244;48.508;9.052;2023-03-23T11:13:12;21.00;1.00
516;DHT22;244;48.508;9.052;2023-03-23T11:15:41;21.10;1.00
516;DHT22;244;48.508;9.052;2023-03-23T11:18:11;21.10;1.00
516;DHT22;244;48.508;9.052;2023-03-23T11:20:40;21.00;1.00
516;DHT22;244;48.508;9.052;2023-03-23T11:23:11;20.90;1.00
516;DHT22;244;48.508;9.052;2023-03-23T11:26:08;20.90;1.00
516;DHT22;244;48.508;9.052;2023-03-23T11:28:37;21.00;1.00
516;DHT22;244;48.508;9.052;2023-03-23T11:31:06;21.00;1.00
516;DHT22;244;48.508;9.052;2023-03-23T11:33:37;21.00;1.00
516;DHT22;244;48.508;9.052;2023-03-23T11:36:06;21.00;1.00
516;DHT22;244;48.508;9.052;2023-03-23T11:38:35;21.00;1.00
516;DHT22;244;48.508;9.052;2023-03-23T11:41:10;21.10;1.00
516;DHT22;244;48.508;9.052;2023-03-23T11:43:40;21.20;1.00
516;DHT22;244;48.508;9.052;2023-03-23T11:46:18;21.20;1.00
516;DHT22;244;48.508;9.052;2023-03-23T11:48:53;21.10;1.00
516;DHT22;244;48.508;9.052;2023-03-23T11:51:27;21.20;1.00
516;DHT22;244;48.508;9.052;2023-03-23T11:54:00;21.20;1.00
516;DHT22;244;48.508;9.052;2023-03-23T11:56:33;21.20;1.00
516;DHT22;244;48.508;9.052;2023-03-23T11:59:01;21.30;1.00
516;DHT22;244;48.508;9.052;2023-03-23T12:01:43;21.40;1.00
516;DHT22;244;48.508;9.052;2023-03-23T12:04:31;21.40;1.00
516;DHT22;244;48.508;9.052;2023-03-23T12:07:10;21.40;1.00
516;DHT22;244;48.508;9.052;2023-03-23T12:09:48;21.40;1.00
516;DHT22;244;48.508;9.052;2023-03-23T12:12:22;21.60;1.00
516;DHT22;244;48.508;9.052;2023-03-23T12:15:00;21.60;1.00
516;DHT22;244;48.508;9.052;2023-03-23T12:17:36;21.70;1.00
516;DHT22;244;48.508;9.052;2023-03-23T12:20:15;21.80;1.00
516;DHT22;244;48.508;9.052;2023-03-23T12:22:52;21.90;1.00
516;DHT22;244;48.508;9.052;2023-03-23T12:25:38;21.90;1.00
516;DHT22;244;48.508;9.052;2023-03-23T12:28:15;21.90;1.00
516;DHT22;244;48.508;9.052;2023-03-23T12:30:49;21.70;1.00
516;DHT22;244;48.508;9.052;2023-03-23T12:33:24;21.60;1.00
516;DHT22;244;48.508;9.052;2023-03-23T12:36:02;21.50;1.00
516;DHT22;244;48.508;9.052;2023-03-23T12:38:48;21.40;1.00
516;DHT22;244;48.508;9.052;2023-03-23T12:41:17;21.30;1.00
516;DHT22;244;48.508;9.052;2023-03-23T12:43:51;21.20;1.00
516;DHT22;244;48.508;9.052;2023-03-23T12:46:36;21.10;1.00
516;DHT22;244;48.508;9.052;2023-03-23T12:49:07;21.10;1.00
516;DHT22;244;48.508;9.052;2023-03-23T12:51:42;21.00;1.00
516;DHT22;244;48.508;9.052;2023-03-23T12:54:15;21.00;1.00
516;DHT22;244;48.508;9.052;2023-03-23T12:56:49;20.90;1.00
516;DHT22;244;48.508;9.052;2023-03-23T12:59:25;20.90;1.00
516;DHT22;244;48.508;9.052;2023-03-23T13:01:57;21.00;1.00
516;DHT22;244;48.508;9.052;2023-03-23T13:04:29;21.10;1.00
516;DHT22;244;48.508;9.052;2023-03-23T13:06:58;21.20;1.00
516;DHT22;244;48.508;9.052;2023-03-23T13:09:30;21.30;1.00
516;DHT22;244;48.508;9.052;2023-03-23T13:12:00;21.40;1.00
516;DHT22;244;48.508;9.052;2023-03-23T13:14:37;21.50;1.00
516;DHT22;244;48.508;9.052;2023-03-23T13:17:17;21.70;1.00
516;DHT22;244;48.508;9.052;2023-03-23T13:20:08;21.80;1.00
516;DHT22;244;48.508;9.052;2023-03-23T13:22:46;21.80;1.00
516;DHT22;244;48.508;9.052;2023-03-23T13:25:18;22.00;1.00
516;DHT22;244;48.508;9.052;2023-03-23T13:27:56;22.10;1.00
516;DHT22;244;48.508;9.052;2023-03-23T13:30:26;22.20;1.00
516;DHT22;244;48.508;9.052;2023-03-23T13:33:02;22.10;1.00
516;DHT22;244;48.508;9.052;2023-03-23T13:35:34;22.00;1.00
516;DHT22;244;48.508;9.052;2023-03-23T13:38:02;21.80;1.00
516;DHT22;244;48.508;9.052;2023-03-23T13:40:42;21.80;1.00
516;DHT22;244;48.508;9.052;2023-03-23T13:43:10;21.70;1.00
516;DHT22;244;48.508;9.052;2023-03-23T13:45:45;21.70;1.00
516;DHT22;244;48.508;9.052;2023-03-23T13:48:21;21.70;1.00
516;DHT22;244;48.508;9.052;2023-03-23T13:50:54;21.70;1.00
516;DHT22;244;48.508;9.052;2023-03-23T13:53:25;21.70;1.00
516;DHT22;244;48.508;9.052;2023-03-23T13:56:06;21.70;1.00
516;DHT22;244;48.508;9.052;2023-03-23T13:58:45;21.70;1.00
516;DHT22;244;48.508;9.052;2023-03-23T14:01:17;21.60;1.00
516;DHT22;244;48.508;9.052;2023-03-23T14:03:47;21.50;1.00
516;DHT22;244;48.508;9.052;2023-03-23T14:06:18;21.50;1.00
516;DHT22;244;48.508;9.052;2023-03-23T14:08:49;21.40;1.00
516;DHT22;244;48.508;9.052;2023-03-23T14:11:19;21.40;1.00
516;DHT22;244;48.508;9.052;2023-03-23T14:14:01;21.30;1.00
516;DHT22;244;48.508;9.052;2023-03-23T14:16:37;21.20;1.00
516;DHT22;244;48.508;9.052;2023-03-23T14:19:14;21.20;1.00
516;DHT22;244;48.508;9.052;2023-03-23T14:21:48;21.10;1.00
516;DHT22;244;48.508;9.052;2023-03-23T14:24:17;21.10;1.00
516;DHT22;244;48.508;9.052;2023-03-23T14:26:44;21.00;1.00
516;DHT22;244;48.508;9.052;2023-03-23T14:29:13;21.00;1.00
516;DHT22;244;48.508;9.052;2023-03-23T14:31:41;20.90;1.00
516;DHT22;244;48.508;9.052;2023-03-23T14:34:18;21.00;1.00
516;DHT22;244;48.508;9.052;2023-03-23T14:36:45;20.90;1.00
516;DHT22;244;48.508;9.052;2023-03-23T14:39:21;20.90;1.00
516;DHT22;244;48.508;9.052;2023-03-23T14:41:48;20.80;1.00
516;DHT22;244;48.508;9.052;2023-03-23T14:44:20;20.70;1.00
516;DHT22;244;48.508;9.052;2023-03-23T14:46:49;20.60;1.00
516;DHT22;244;48.508;9.052;2023-03-23T14:49:19;20.60;1.00
516;DHT22;244;48.508;9.052;2023-03-23T14:51:49;20.50;1.00
516;DHT22;244;48.508;9.052;2023-03-23T14:54:21;20.40;1.00
516;DHT22;244;48.508;9.052;2023-03-23T14:56:49;20.30;1.00
516;DHT22;244;48.508;9.052;2023-03-23T14:59:16;20.30;1.00
516;DHT22;244;48.508;9.052;2023-03-23T15:01:44;20.20;1.00
516;DHT22;244;48.508;9.052;2023-03-23T15:04:17;20.20;1.00
516;DHT22;244;48.508;9.052;2023-03-23T15:06:49;20.10;1.00
516;DHT22;244;48.508;9.052;2023-03-23T15:09:18;20.00;1.00
516;DHT22;244;48.508;9.052;2023-03-23T15:11:53;19.90;1.00
516;DHT22;244;48.508;9.052;2023-03-23T15:14:21;19.90;1.00
516;DHT22;244;48.508;9.052;2023-03-23T15:16:50;20.00;1.00
516;DHT22;244;48.508;9.052;2023-03-23T15:19:22;19.90;1.00
516;DHT22;244;48.508;9.052;2023-03-23T15:21:52;19.80;1.00
516;DHT22;244;48.508;9.052;2023-03-23T15:24:26;19.80;1.00
516;DHT22;244;48.508;9.052;2023-03-23T15:26:53;19.80;1.00
516;DHT22;244;48.508;9.052;2023-03-23T15:29:21;19.70;1.00
516;DHT22;244;48.508;9.052;2023-03-23T15:31:51;19.70;1.00
516;DHT22;244;48.508;9.052;2023-03-23T15:34:30;19.70;1.00
516;DHT22;244;48.508;9.052;2023-03-23T15:37:00;19.60;1.00
516;DHT22;244;48.508;9.052;2023-03-23T15:39:27;19.60;1.00
516;DHT22;244;48.508;9.052;2023-03-23T15:41:55;19.60;1.00
516;DHT22;244;48.508;9.052;2023-03-23T15:44:29;19.50;1.00
516;DHT22;244;48.508;9.052;2023-03-23T15:47:12;19.50;1.00
516;DHT22;244;48.508;9.052;2023-03-23T15:49:43;19.40;1.00
516;DHT22;244;48.508;9.052;2023-03-23T15:52:11;19.40;1.00
516;DHT22;244;48.508;9.052;2023-03-23T15:54:39;19.30;1.00
516;DHT22;244;48.508;9.052;2023-03-23T15:57:12;19.30;1.00
516;DHT22;244;48.508;9.052;2023-03-23T15:59:39;19.20;1.00
516;DHT22;244;48.508;9.052;2023-03-23T16:02:08;19.20;1.00
516;DHT22;244;48.508;9.052;2023-03-23T16:04:36;19.10;1.00
516;DHT22;244;48.508;9.052;2023-03-23T16:07:04;19.10;1.00
516;DHT22;244;48.508;9.052;2023-03-23T16:09:32;19.10;1.00
516;DHT22;244;48.508;9.052;2023-03-23T16:11:59;19.10;1.00
516;DHT22;244;48.508;9.052;2023-03-23T16:14:25;19.10;1.00
516;DHT22;244;48.508;9.052;2023-03-23T16:16:52;19.10;1.00
516;DHT22;244;48.508;9.052;2023-03-23T16:19:19;19.10;1.00
516;DHT22;244;48.508;9.052;2023-03-23T16:21:49;19.10;1.00
516;DHT22;244;48.508;9.052;2023-03-23T16:24:17;19.10;1.00
516;DHT22;244;48.508;9.052;2023-03-23T16:26:44;19.10;1.00
516;DHT22;244;48.508;9.052;2023-03-23T16:29:12;19.10;1.00
516;DHT22;244;48.508;9.052;2023-03-23T16:31:40;19.00;1.00
516;DHT22;244;48.508;9.052;2023-03-23T16:34:06;19.00;1.00
516;DHT22;244;48.508;9.052;2023-03-23T16:36:33;19.00;1.00
516;DHT22;244;48.508;9.052;2023-03-23T16:39:00;19.00;1.00
516;DHT22;244;48.508;9.052;2023-03-23T16:41:29;18.90;1.00
516;DHT22;244;48.508;9.052;2023-03-23T16:43:56;18.90;1.00
516;DHT22;244;48.508;9.052;2023-03-23T16:46:23;18.90;1.00
516;DHT22;244;48.508;9.052;2023-03-23T16:48:50;18.80;1.00
516;DHT22;244;48.508;9.052;2023-03-23T16:51:17;18.80;1.00
516;DHT22;244;48.508;9.052;2023-03-23T16:53:44;18.80;1.00
516;DHT22;244;48.508;9.052;2023-03-23T16:56:11;18.80;1.00
516;DHT22;244;48.508;9.052;2023-03-23T16:58:39;18.70;1.00
516;DHT22;244;48.508;9.052;2023-03-23T17:01:06;18.70;1.00
516;DHT22;244;48.508;9.052;2023-03-23T17:03:33;18.70;1.00
516;DHT22;244;48.508;9.052;2023-03-23T17:06:00;18.60;1.00
516;DHT22;244;48.508;9.052;2023-03-23T17:08:27;18.60;1.00
516;DHT22;244;48.508;9.052;2023-03-23T17:10:54;18.50;1.00
516;DHT22;244;48.508;9.052;2023-03-23T17:13:21;18.50;1.00
516;DHT22;244;48.508;9.052;2023-03-23T17:15:52;18.40;1.00
516;DHT22;244;48.508;9.052;2023-03-23T17:18:21;18.30;1.00